BTI1654 ULPB-ULAA
Flight info
| Callsign | BTI1654 |
|---|---|
| Flight time | 0h 49m |
| Altitude | 39000 |
| Route | SOPID2E SOPID T821 MAKOG MAKOG3M |
| Aircraft | B736/M-SDE2E3FGHIRWXY/LB1 |
Departure
| Time | 2026-04-21 07:55 |
|---|---|
| Airport | Petrozavodsk Airport (ULPB) |
Arrival
| Time | 2026-04-21 08:44 |
|---|---|
| Airport | Talagi Airport (ULAA) |
| Time | Latitude | Longitude | Altitude | Speed | Heading |
|---|---|---|---|---|---|
| 2026-04-21 07:31 | 61.87908 | 34.15554 | 182 ft | 0 kts | 112° |
| 2026-04-21 07:50 | 61.87912 | 34.15534 | 182 ft | 3 kts | 112° |
| 2026-04-21 07:50 | 61.87919 | 34.15502 | 182 ft | 3 kts | 102° |
| 2026-04-21 07:50 | 61.87917 | 34.15468 | 182 ft | 3 kts | 71° |
| 2026-04-21 07:51 | 61.87916 | 34.15446 | 182 ft | 2 kts | 121° |
| 2026-04-21 07:51 | 61.87925 | 34.15422 | 182 ft | 3 kts | 158° |
| 2026-04-21 07:51 | 61.87929 | 34.15421 | 182 ft | 1 kts | 113° |
| 2026-04-21 07:53 | 61.87905 | 34.15442 | 182 ft | 8 kts | 193° |
| 2026-04-21 07:53 | 61.87846 | 34.15380 | 182 ft | 10 kts | 219° |
| 2026-04-21 07:53 | 61.87858 | 34.15250 | 182 ft | 10 kts | 293° |
| 2026-04-21 07:53 | 61.87884 | 34.15123 | 181 ft | 9 kts | 293° |
| 2026-04-21 07:54 | 61.87923 | 34.14969 | 171 ft | 16 kts | 328° |
| 2026-04-21 07:54 | 61.87959 | 34.14972 | 170 ft | 0 kts | 23° |
| 2026-04-21 07:54 | 61.87960 | 34.14972 | 170 ft | 1 kts | 23° |
| 2026-04-21 07:54 | 61.87961 | 34.14973 | 170 ft | 0 kts | 23° |
| 2026-04-21 07:55 | 61.88294 | 34.15275 | 170 ft | 102 kts | 23° |
| 2026-04-21 07:55 | 61.89218 | 34.16105 | 227 ft | 180 kts | 23° |
| 2026-04-21 07:55 | 61.90365 | 34.17162 | 1445 ft | 173 kts | 26° |
| 2026-04-21 07:56 | 61.91284 | 34.18685 | 2793 ft | 169 kts | 40° |
| 2026-04-21 07:56 | 61.92175 | 34.20430 | 3680 ft | 181 kts | 44° |
| 2026-04-21 07:56 | 61.93028 | 34.22438 | 4500 ft | 183 kts | 43° |
| 2026-04-21 07:56 | 61.94000 | 34.24225 | 5207 ft | 191 kts | 38° |
| 2026-04-21 07:57 | 61.95085 | 34.26163 | 5500 ft | 220 kts | 39° |
| 2026-04-21 07:57 | 61.96321 | 34.28414 | 5816 ft | 247 kts | 39° |
| 2026-04-21 07:57 | 61.97681 | 34.30906 | 6386 ft | 264 kts | 39° |
| 2026-04-21 07:57 | 61.99059 | 34.33418 | 7601 ft | 252 kts | 39° |
| 2026-04-21 07:58 | 62.00346 | 34.35845 | 8789 ft | 248 kts | 39° |
| 2026-04-21 07:58 | 62.01676 | 34.38298 | 9541 ft | 257 kts | 38° |
| 2026-04-21 07:58 | 62.02580 | 34.39956 | 10042 ft | 261 kts | 39° |
| 2026-04-21 07:58 | 62.03972 | 34.42555 | 10708 ft | 273 kts | 39° |
| 2026-04-21 07:59 | 62.05465 | 34.45316 | 11014 ft | 297 kts | 39° |
| 2026-04-21 07:59 | 62.07101 | 34.48298 | 11314 ft | 319 kts | 39° |
| 2026-04-21 07:59 | 62.08805 | 34.51418 | 12002 ft | 326 kts | 39° |
| 2026-04-21 07:59 | 62.10520 | 34.54584 | 12895 ft | 326 kts | 39° |
| 2026-04-21 08:00 | 62.12241 | 34.57778 | 13687 ft | 330 kts | 39° |
| 2026-04-21 08:00 | 62.13978 | 34.61018 | 14450 ft | 333 kts | 39° |
| 2026-04-21 08:00 | 62.15730 | 34.64294 | 15189 ft | 336 kts | 39° |
| 2026-04-21 08:00 | 62.17505 | 34.67581 | 15937 ft | 339 kts | 39° |
| 2026-04-21 08:01 | 62.19309 | 34.70857 | 16652 ft | 342 kts | 38° |
| 2026-04-21 08:01 | 62.21134 | 34.74155 | 17365 ft | 345 kts | 38° |
| 2026-04-21 08:01 | 62.22975 | 34.77486 | 18052 ft | 347 kts | 38° |
| 2026-04-21 08:02 | 62.26694 | 34.84246 | 19367 ft | 353 kts | 38° |
| 2026-04-21 08:02 | 62.28573 | 34.87675 | 20017 ft | 356 kts | 38° |
| 2026-04-21 08:02 | 62.30467 | 34.91141 | 20649 ft | 358 kts | 39° |
| 2026-04-21 08:02 | 62.32370 | 34.94631 | 21269 ft | 361 kts | 39° |
| 2026-04-21 08:03 | 62.34287 | 34.98151 | 21886 ft | 363 kts | 39° |
| 2026-04-21 08:03 | 62.36215 | 35.01695 | 22470 ft | 366 kts | 39° |
| 2026-04-21 08:03 | 62.38158 | 35.05275 | 23036 ft | 369 kts | 39° |
| 2026-04-21 08:03 | 62.40114 | 35.08889 | 23597 ft | 371 kts | 39° |
| 2026-04-21 08:04 | 62.42070 | 35.12554 | 24140 ft | 374 kts | 39° |
| 2026-04-21 08:04 | 62.44032 | 35.16268 | 24680 ft | 376 kts | 39° |
| 2026-04-21 08:04 | 62.46001 | 35.20012 | 25242 ft | 378 kts | 39° |
| 2026-04-21 08:04 | 62.47977 | 35.23777 | 25737 ft | 381 kts | 39° |
| 2026-04-21 08:05 | 62.49973 | 35.27585 | 26191 ft | 384 kts | 39° |
| 2026-04-21 08:05 | 62.51984 | 35.31425 | 26643 ft | 387 kts | 40° |
| 2026-04-21 08:05 | 62.54005 | 35.35293 | 27120 ft | 389 kts | 40° |
| 2026-04-21 08:05 | 62.56036 | 35.39186 | 27551 ft | 391 kts | 40° |
| 2026-04-21 08:06 | 62.58081 | 35.43110 | 27956 ft | 394 kts | 40° |
| 2026-04-21 08:06 | 62.60140 | 35.47069 | 28343 ft | 397 kts | 40° |
| 2026-04-21 08:06 | 62.62213 | 35.51062 | 28723 ft | 399 kts | 40° |
| 2026-04-21 08:06 | 62.64296 | 35.55081 | 29104 ft | 402 kts | 40° |
| 2026-04-21 08:07 | 62.66386 | 35.59124 | 29500 ft | 403 kts | 40° |
| 2026-04-21 08:07 | 62.68459 | 35.63140 | 29860 ft | 405 kts | 40° |
| 2026-04-21 08:07 | 62.70566 | 35.67229 | 30223 ft | 406 kts | 40° |
| 2026-04-21 08:07 | 62.72675 | 35.71332 | 30642 ft | 406 kts | 40° |
| 2026-04-21 08:08 | 62.74786 | 35.75445 | 30981 ft | 408 kts | 40° |
| 2026-04-21 08:08 | 62.76905 | 35.79585 | 31316 ft | 409 kts | 40° |
| 2026-04-21 08:08 | 62.79029 | 35.83743 | 31658 ft | 411 kts | 40° |
| 2026-04-21 08:08 | 62.81160 | 35.87919 | 31953 ft | 413 kts | 40° |
| 2026-04-21 08:09 | 62.83299 | 35.92119 | 32281 ft | 413 kts | 40° |
| 2026-04-21 08:09 | 62.85436 | 35.96325 | 32642 ft | 413 kts | 40° |
| 2026-04-21 08:09 | 62.87568 | 36.00531 | 32952 ft | 414 kts | 40° |
| 2026-04-21 08:09 | 62.89719 | 36.04753 | 33168 ft | 417 kts | 40° |
| 2026-04-21 08:10 | 62.91892 | 36.08988 | 33395 ft | 419 kts | 40° |
| 2026-04-21 08:10 | 62.94074 | 36.13233 | 33714 ft | 419 kts | 40° |
| 2026-04-21 08:10 | 62.96249 | 36.17474 | 34054 ft | 417 kts | 40° |
| 2026-04-21 08:10 | 62.98422 | 36.21723 | 34298 ft | 419 kts | 40° |
| 2026-04-21 08:11 | 63.00600 | 36.25995 | 34515 ft | 421 kts | 40° |
| 2026-04-21 08:11 | 63.02788 | 36.30299 | 34721 ft | 422 kts | 40° |
| 2026-04-21 08:11 | 63.04977 | 36.34616 | 35030 ft | 421 kts | 40° |
| 2026-04-21 08:12 | 63.09375 | 36.43317 | 35115 ft | 427 kts | 40° |
| 2026-04-21 08:12 | 63.13788 | 36.52086 | 35101 ft | 424 kts | 40° |
| 2026-04-21 08:13 | 63.18144 | 36.60775 | 35110 ft | 421 kts | 40° |
| 2026-04-21 08:13 | 63.22366 | 36.69730 | 35099 ft | 421 kts | 47° |
| 2026-04-21 08:14 | 63.26096 | 36.79761 | 35098 ft | 421 kts | 49° |
| 2026-04-21 08:14 | 63.29775 | 36.89882 | 35102 ft | 421 kts | 49° |
| 2026-04-21 08:15 | 63.33492 | 36.99981 | 35101 ft | 421 kts | 48° |
| 2026-04-21 08:15 | 63.37202 | 37.10036 | 35105 ft | 423 kts | 48° |
| 2026-04-21 08:16 | 63.40952 | 37.20240 | 35104 ft | 424 kts | 49° |
| 2026-04-21 08:16 | 63.44658 | 37.30378 | 35104 ft | 426 kts | 49° |
| 2026-04-21 08:17 | 63.48433 | 37.40749 | 35103 ft | 427 kts | 49° |
| 2026-04-21 08:17 | 63.52128 | 37.50955 | 35097 ft | 427 kts | 49° |
| 2026-04-21 08:18 | 63.55909 | 37.61439 | 35102 ft | 427 kts | 49° |
| 2026-04-21 08:18 | 63.59581 | 37.71673 | 35103 ft | 427 kts | 49° |
| 2026-04-21 08:18 | 63.61481 | 37.76986 | 34788 ft | 433 kts | 49° |
| 2026-04-21 08:19 | 63.63374 | 37.82289 | 34124 ft | 434 kts | 49° |
| 2026-04-21 08:19 | 63.65259 | 37.87587 | 33415 ft | 433 kts | 49° |
| 2026-04-21 08:19 | 63.67075 | 37.92705 | 32928 ft | 426 kts | 49° |
| 2026-04-21 08:19 | 63.68959 | 37.98028 | 32370 ft | 421 kts | 49° |
| 2026-04-21 08:20 | 63.70772 | 38.03157 | 31849 ft | 415 kts | 49° |
| 2026-04-21 08:20 | 63.72559 | 38.08228 | 31325 ft | 410 kts | 49° |
| 2026-04-21 08:20 | 63.74320 | 38.13236 | 30823 ft | 405 kts | 49° |
| 2026-04-21 08:20 | 63.76056 | 38.18181 | 30312 ft | 399 kts | 48° |
| 2026-04-21 08:21 | 63.77771 | 38.23074 | 29810 ft | 394 kts | 48° |
| 2026-04-21 08:21 | 63.79459 | 38.27902 | 29306 ft | 389 kts | 48° |
| 2026-04-21 08:21 | 63.81128 | 38.32687 | 28795 ft | 385 kts | 48° |
| 2026-04-21 08:21 | 63.82774 | 38.37413 | 28288 ft | 380 kts | 48° |
| 2026-04-21 08:22 | 63.84404 | 38.42094 | 27783 ft | 376 kts | 48° |
| 2026-04-21 08:22 | 63.86012 | 38.46731 | 27295 ft | 372 kts | 49° |
| 2026-04-21 08:22 | 63.87602 | 38.51328 | 26805 ft | 368 kts | 49° |
| 2026-04-21 08:22 | 63.89172 | 38.55878 | 26319 ft | 365 kts | 49° |
| 2026-04-21 08:23 | 63.90726 | 38.60391 | 25847 ft | 361 kts | 49° |
| 2026-04-21 08:23 | 63.92262 | 38.64860 | 25374 ft | 357 kts | 49° |
| 2026-04-21 08:23 | 63.93783 | 38.69292 | 24905 ft | 354 kts | 49° |
| 2026-04-21 08:23 | 63.95289 | 38.73686 | 24443 ft | 351 kts | 49° |
| 2026-04-21 08:24 | 63.96779 | 38.78046 | 23986 ft | 347 kts | 49° |
| 2026-04-21 08:24 | 63.98254 | 38.82370 | 23526 ft | 344 kts | 49° |
| 2026-04-21 08:24 | 63.99718 | 38.86667 | 23084 ft | 342 kts | 49° |
| 2026-04-21 08:24 | 64.01169 | 38.90937 | 22638 ft | 339 kts | 49° |
| 2026-04-21 08:25 | 64.02606 | 38.95168 | 22197 ft | 337 kts | 49° |
| 2026-04-21 08:25 | 64.04032 | 38.99378 | 21762 ft | 334 kts | 49° |
| 2026-04-21 08:25 | 64.05445 | 39.03562 | 21329 ft | 332 kts | 49° |
| 2026-04-21 08:25 | 64.06769 | 39.07860 | 20896 ft | 332 kts | 56° |
| 2026-04-21 08:26 | 64.07809 | 39.12571 | 20500 ft | 331 kts | 60° |
| 2026-04-21 08:26 | 64.08773 | 39.17335 | 20072 ft | 329 kts | 61° |
| 2026-04-21 08:26 | 64.09720 | 39.22082 | 19653 ft | 327 kts | 61° |
| 2026-04-21 08:26 | 64.10668 | 39.26795 | 19236 ft | 325 kts | 61° |
| 2026-04-21 08:27 | 64.11617 | 39.31471 | 18828 ft | 323 kts | 61° |
| 2026-04-21 08:27 | 64.12564 | 39.36108 | 18415 ft | 321 kts | 61° |
| 2026-04-21 08:27 | 64.13509 | 39.40716 | 18000 ft | 319 kts | 61° |
| 2026-04-21 08:27 | 64.14449 | 39.45293 | 17605 ft | 317 kts | 61° |
| 2026-04-21 08:28 | 64.15384 | 39.49851 | 17206 ft | 315 kts | 61° |
| 2026-04-21 08:28 | 64.16313 | 39.54381 | 16805 ft | 313 kts | 61° |
| 2026-04-21 08:28 | 64.17236 | 39.58888 | 16408 ft | 311 kts | 61° |
| 2026-04-21 08:28 | 64.18152 | 39.63374 | 16011 ft | 310 kts | 61° |
| 2026-04-21 08:29 | 64.19062 | 39.67836 | 15620 ft | 308 kts | 62° |
| 2026-04-21 08:29 | 64.19967 | 39.72284 | 15223 ft | 307 kts | 62° |
| 2026-04-21 08:29 | 64.20866 | 39.76712 | 14827 ft | 305 kts | 62° |
| 2026-04-21 08:29 | 64.21758 | 39.81118 | 14441 ft | 303 kts | 62° |
| 2026-04-21 08:30 | 64.22643 | 39.85499 | 14050 ft | 301 kts | 62° |
| 2026-04-21 08:30 | 64.23523 | 39.89852 | 13665 ft | 300 kts | 62° |
| 2026-04-21 08:30 | 64.24397 | 39.94182 | 13276 ft | 298 kts | 62° |
| 2026-04-21 08:30 | 64.25262 | 39.98492 | 12893 ft | 296 kts | 62° |
| 2026-04-21 08:31 | 64.26109 | 40.02719 | 12512 ft | 294 kts | 62° |
| 2026-04-21 08:31 | 64.26953 | 40.06949 | 12269 ft | 288 kts | 63° |
| 2026-04-21 08:31 | 64.27790 | 40.11144 | 11916 ft | 290 kts | 63° |
| 2026-04-21 08:31 | 64.28639 | 40.15402 | 11551 ft | 296 kts | 63° |
| 2026-04-21 08:32 | 64.29501 | 40.19749 | 11161 ft | 301 kts | 63° |
| 2026-04-21 08:32 | 64.30375 | 40.24158 | 10749 ft | 303 kts | 63° |
| 2026-04-21 08:32 | 64.31241 | 40.28541 | 10506 ft | 296 kts | 63° |
| 2026-04-21 08:32 | 64.32077 | 40.32793 | 10355 ft | 287 kts | 63° |
| 2026-04-21 08:33 | 64.32884 | 40.36903 | 10218 ft | 277 kts | 63° |
| 2026-04-21 08:33 | 64.33663 | 40.40881 | 10086 ft | 268 kts | 63° |
| 2026-04-21 08:33 | 64.34429 | 40.44786 | 9772 ft | 266 kts | 63° |
| 2026-04-21 08:33 | 64.35189 | 40.48672 | 9476 ft | 265 kts | 63° |
| 2026-04-21 08:34 | 64.35946 | 40.52539 | 9167 ft | 264 kts | 63° |
| 2026-04-21 08:34 | 64.36701 | 40.56396 | 8854 ft | 263 kts | 63° |
| 2026-04-21 08:34 | 64.37451 | 40.60244 | 8533 ft | 262 kts | 63° |
| 2026-04-21 08:34 | 64.38197 | 40.64087 | 8216 ft | 262 kts | 63° |
| 2026-04-21 08:35 | 64.38939 | 40.67923 | 7906 ft | 261 kts | 63° |
| 2026-04-21 08:35 | 64.39678 | 40.71745 | 7586 ft | 260 kts | 63° |
| 2026-04-21 08:35 | 64.40416 | 40.75566 | 7265 ft | 260 kts | 63° |
| 2026-04-21 08:35 | 64.41154 | 40.79394 | 6957 ft | 260 kts | 63° |
| 2026-04-21 08:36 | 64.41888 | 40.83207 | 6646 ft | 259 kts | 63° |
| 2026-04-21 08:36 | 64.42618 | 40.87009 | 6337 ft | 258 kts | 63° |
| 2026-04-21 08:36 | 64.43344 | 40.90799 | 6017 ft | 257 kts | 63° |
| 2026-04-21 08:36 | 64.44069 | 40.94583 | 5706 ft | 256 kts | 63° |
| 2026-04-21 08:37 | 64.44789 | 40.98355 | 5410 ft | 256 kts | 64° |
| 2026-04-21 08:37 | 64.45505 | 41.02111 | 5109 ft | 255 kts | 64° |
| 2026-04-21 08:37 | 64.46219 | 41.05861 | 4820 ft | 254 kts | 64° |
| 2026-04-21 08:37 | 64.46932 | 41.09606 | 4509 ft | 253 kts | 64° |
| 2026-04-21 08:38 | 64.47921 | 41.12902 | 4190 ft | 249 kts | 36° |
| 2026-04-21 08:38 | 64.49427 | 41.14538 | 4161 ft | 234 kts | 13° |
| 2026-04-21 08:38 | 64.51000 | 41.15132 | 4056 ft | 225 kts | 5° |
| 2026-04-21 08:38 | 64.52525 | 41.15508 | 3958 ft | 216 kts | 5° |
| 2026-04-21 08:39 | 64.53978 | 41.15875 | 3898 ft | 203 kts | 5° |
| 2026-04-21 08:39 | 64.55339 | 41.16231 | 3751 ft | 192 kts | 5° |
| 2026-04-21 08:39 | 64.56631 | 41.16128 | 3516 ft | 183 kts | 338° |
| 2026-04-21 08:39 | 64.57590 | 41.14326 | 3366 ft | 181 kts | 305° |
| 2026-04-21 08:40 | 64.57954 | 41.11619 | 3202 ft | 170 kts | 282° |
| 2026-04-21 08:40 | 64.58188 | 41.08985 | 2991 ft | 160 kts | 282° |
| 2026-04-21 08:40 | 64.58358 | 41.06490 | 2763 ft | 153 kts | 278° |
| 2026-04-21 08:40 | 64.58486 | 41.04064 | 2585 ft | 151 kts | 276° |
| 2026-04-21 08:41 | 64.58603 | 41.01623 | 2376 ft | 153 kts | 275° |
| 2026-04-21 08:41 | 64.58718 | 40.99158 | 2155 ft | 152 kts | 275° |
| 2026-04-21 08:41 | 64.58831 | 40.96783 | 1954 ft | 143 kts | 275° |
| 2026-04-21 08:41 | 64.58934 | 40.94547 | 1770 ft | 136 kts | 275° |
| 2026-04-21 08:42 | 64.59037 | 40.92349 | 1608 ft | 139 kts | 275° |
| 2026-04-21 08:42 | 64.59141 | 40.90123 | 1425 ft | 137 kts | 277° |
| 2026-04-21 08:42 | 64.59245 | 40.87934 | 1238 ft | 136 kts | 276° |
| 2026-04-21 08:42 | 64.59350 | 40.85726 | 1064 ft | 137 kts | 277° |
| 2026-04-21 08:43 | 64.59454 | 40.83550 | 874 ft | 134 kts | 277° |
| 2026-04-21 08:43 | 64.59557 | 40.81378 | 659 ft | 135 kts | 277° |
| 2026-04-21 08:43 | 64.59664 | 40.79203 | 476 ft | 136 kts | 277° |
| 2026-04-21 08:43 | 64.59776 | 40.76988 | 291 ft | 139 kts | 277° |
| 2026-04-21 08:44 | 64.59850 | 40.75507 | 179 ft | 139 kts | 277° |
| 2026-04-21 08:44 | 64.59951 | 40.73296 | 38 ft | 134 kts | 277° |
| 2026-04-21 08:44 | 64.60020 | 40.71857 | 34 ft | 62 kts | 277° |
| 2026-04-21 08:44 | 64.60037 | 40.71366 | 37 ft | 16 kts | 239° |
| 2026-04-21 08:45 | 64.59930 | 40.71315 | 39 ft | 16 kts | 187° |
| 2026-04-21 08:45 | 64.59824 | 40.71288 | 39 ft | 15 kts | 186° |
| 2026-04-21 08:45 | 64.59738 | 40.71258 | 37 ft | 12 kts | 195° |
| 2026-04-21 08:45 | 64.59676 | 40.71229 | 39 ft | 0 kts | 185° |